• Join FlightAware (Why Join?)
  • Login
  • US Flag 
06:59PM EST


 

Airport Tracker/Info


-or-


 

Live Flight TrackerFlight Track Log ✈ AAL1092 ✈ 06-May-2013 ✈ KPHX - KORD

Flight Track Log - Related Links

Times and Time Zones

All times are in EDT time to prevent confusion due to time zone crossing. See the AAL1092 flight status page for this flight to view local times or setup timezone preferences in your user account.

Time Position Orientation Groundspeed Altitude Reporting Facility
EDT Latitude Longitude Course Direction KTS MPH feet Rate Location/Type
12:24PM 33.4333 -111.9833 67° East 197 227 2,100  Level Phoenix TRACON
12:26PM 33.5739 -111.6108 69° East  Level FlightAware Approximate
12:26PM 33.5029 -111.7883 73° East  Level FlightAware Approximate
12:26PM 33.4833 -111.8000 73° East 279 321 7,000  Level Phoenix TRACON
12:27PM 33.6163 -111.4778 69° East  Level FlightAware Approximate
12:27PM 33.4897 -111.7811 68° East 279 321 7,400  Level Albuquerque Center
12:28PM 33.6587 -111.3446 69° East  Level FlightAware Approximate
12:28PM 33.5361 -111.6789 61° Northeast 292 336 9,500  Level Albuquerque Center
12:29PM 33.7025 -111.2121 67° East  Level FlightAware Approximate
12:29PM 33.5717 -111.5847 66° East 309 356 11,300  Level Albuquerque Center
12:30PM 33.7486 -111.0806 67° East  Level FlightAware Approximate
12:31PM 33.6463 -111.3725 67° East  Level FlightAware Approximate
12:31PM 33.6606 -111.3472 67° East 408 470 15,100  Level Albuquerque Center
12:32PM 33.7075 -111.2189 66° East 422 486 17,000 2,160 Climbing Albuquerque Center
12:34PM 33.7729 -111.0172 69° East  Level FlightAware Approximate
12:34PM 33.8161 -110.9106 69° East 462 532 21,900  Level Albuquerque Center
12:36PM 33.8846 -110.7206 71° East  Level FlightAware Approximate
12:36PM 33.9139 -110.6325 71° East 455 524 25,000  Level Albuquerque Center
12:38PM 33.9701 -110.4465 71° East  Level FlightAware Approximate
12:39PM 34.0786 -110.1617 68° East 500 575 29,200  Level Albuquerque Center
12:40PM 34.1356 -109.9939 68° East 498 573 30,500 1,140 Climbing Albuquerque Center
12:41PM 34.1950 -109.8225 67° East 496 571 31,600 780 Climbing Albuquerque Center
12:42PM 34.2467 -109.6733 67° East 500 575 32,200 240 Climbing Albuquerque Center
12:44PM 34.2922 -109.5126 71° East  Level FlightAware Approximate
12:45PM 34.2834 -109.5171 68° East  Level FlightAware Approximate
12:46PM 34.4583 -109.0286 70° East 493 567 33,000  Level Albuquerque Center
12:48PM 34.5067 -108.8533 71° East 492 566 33,100  Climbing Albuquerque Center
12:49PM 34.5475 -108.7042 72° East 491 565 33,000 -60 Descending Albuquerque Center
12:51PM 34.5666 -108.5623 72° East  Level FlightAware Approximate
12:51PM 34.6033 -108.4224 70° East  Level FlightAware Approximate
12:52PM 34.6025 -108.4249 70° East  Level FlightAware Approximate
12:53PM 34.7142 -108.0839 72° East 480 552 33,000  Level Albuquerque Center
12:55PM 34.7797 -107.8255 73° East  Level FlightAware Approximate
12:56PM 34.8444 -107.5933 73° East 473 544 33,000  Level Albuquerque Center
12:57PM 34.8839 -107.4425 72° East 469 540 32,900 -60 Descending Albuquerque Center
12:58PM 34.8719 -107.4435 72° East  Level FlightAware Approximate
12:58PM 34.9219 -107.2925 73° East 466 536 32,900  Level Albuquerque Center
01:00PM 34.9759 -107.0551 74° East  Level FlightAware Approximate
01:02PM 35.0986 -106.6717 67° East 466 536 33,100  Level Albuquerque Center
01:03PM 35.1531 -106.5283 65° Northeast 482 555 33,100 -120 Level Albuquerque Center
01:05PM 35.2220 -106.3220 66° East  Level FlightAware Approximate
01:05PM 35.2714 -106.2086 66° East 471 542 32,900  Level Albuquerque Center
01:07PM 35.3009 -106.1001 67° East  Level FlightAware Approximate
01:07PM 35.3329 -106.0093 67° East  Level FlightAware Approximate
01:07PM 35.3761 -105.9156 67° East 472 543 33,000  Level Albuquerque Center
01:08PM 35.3489 -105.9637 67° East  Level FlightAware Approximate
01:08PM 35.4344 -105.7667 64° Northeast 476 548 33,100  Level Albuquerque Center
01:09PM 35.4853 -105.6200 67° East 467 537 33,000 -60 Descending Albuquerque Center
01:11PM 35.5328 -105.4355 72° East  Level FlightAware Approximate
01:11PM 35.5947 -105.3097 72° East 452 520 33,000  Level Albuquerque Center
01:12PM 35.6483 -105.1642 66° East 459 528 32,900 -60 Descending Albuquerque Center
01:13PM 35.7142 -105.0322 58° Northeast 449 517 32,900  Level Albuquerque Center
01:14PM 35.7867 -104.8994 56° Northeast 457 526 33,000 60 Climbing Albuquerque Center
01:15PM 35.8578 -104.7667 57° Northeast 459 528 33,100  Climbing Albuquerque Center
01:17PM 35.9925 -104.5147 56° Northeast 463 533 33,100 180 Level Kansas City Center
01:18PM 36.0656 -104.3828 56° Northeast 463 533 33,800 420 Climbing Kansas City Center
01:19PM 36.1353 -104.2506 57° Northeast 460 529 34,000 60 Climbing Kansas City Center
01:20PM 36.2197 -104.0906 57° Northeast 462 532 34,000 180 Level Kansas City Center
01:22PM 36.2851 -103.9509 60° Northeast  Level FlightAware Approximate
01:23PM 36.3647 -103.8189 60° Northeast 473 544 34,600  Level Kansas City Center
01:24PM 36.4358 -103.6839 57° Northeast 470 541 35,000 180 Climbing Kansas City Center
01:25PM 36.5064 -103.5506 57° Northeast 464 534 35,000 -60 Level Kansas City Center
01:26PM 36.5742 -103.4167 58° Northeast 460 529 34,900  Descending Kansas City Center
01:27PM 36.6703 -103.2358 56° Northeast 463 533 35,000  Climbing Albuquerque Center
01:28PM 36.7383 -103.1036 57° Northeast 470 541 35,000  Level Albuquerque Center
01:30PM 36.8772 -102.8311 57° Northeast 474 545 35,100  Climbing Kansas City Center
01:31PM 36.9439 -102.6986 58° Northeast 471 542 35,100  Level Kansas City Center
01:32PM 37.0231 -102.5444 57° Northeast 472 543 35,100 -60 Level Kansas City Center
01:33PM 37.0908 -102.4083 58° Northeast 479 551 35,000  Descending Kansas City Center
01:34PM 37.1775 -102.2383 57° Northeast 474 545 35,100  Climbing Albuquerque Center
01:36PM 37.3156 -101.9617 58° Northeast 476 548 35,100  Level Kansas City Center
01:38PM 37.4057 -101.7768 58° Northeast  Level FlightAware Approximate
01:38PM 37.4478 -101.6933 58° Northeast 472 543 35,100  Level Kansas City Center
01:39PM 37.5253 -101.5364 58° Northeast 473 544 35,100  Level Kansas City Center
01:41PM 37.6169 -101.3463 59° Northeast  Level FlightAware Approximate
01:43PM 37.8072 -100.9589 66° East 463 533 35,100  Level Kansas City Center
01:45PM 37.8792 -100.7775 63° Northeast  Level Estimated
01:46PM 37.9925 -100.5078 63° Northeast 472 543 35,100  Level Kansas City Center
01:47PM 38.0422 -100.3614 67° East 472 543 35,000 -60 Descending Kansas City Center
01:48PM 38.0136 -100.4098 68° East  Level FlightAware Approximate
01:48PM 38.1006 -100.1897 67° East 473 544 35,000  Level Kansas City Center
01:49PM 38.0623 -100.2702 66° East  Level FlightAware Approximate
01:51PM 38.1945 -99.8804 67° East  Level FlightAware Approximate
01:51PM 38.2564 -99.7214 67° East 473 544 35,100  Level Kansas City Center
01:52PM 38.2525 -99.8194 63° Northeast  Level Estimated
01:52PM 38.3119 -99.5500 68° East 469 540 35,000  Level Kansas City Center
01:54PM 38.3617 -99.3997 67° East 473 544 35,000  Level Kansas City Center
01:56PM 38.4628 -99.0886 67° East 474 545 35,000  Level Kansas City Center
01:57PM 38.5139 -98.9344 67° East 472 543 35,100  Climbing Kansas City Center
01:59PM 38.5857 -98.6593 67° East  Level FlightAware Approximate
02:00PM 38.6744 -98.4347 67° East 471 542 35,000  Level Kansas City Center
02:02PM 38.7742 -98.1169 68° East 480 552 35,000  Level Kansas City Center
02:03PM 38.8231 -97.9572 69° East 479 551 35,000  Level Kansas City Center
02:04PM 38.8733 -97.7958 68° East 478 550 35,000  Level Kansas City Center
02:05PM 38.9275 -97.6217 68° East 472 543 35,000  Level Kansas City Center
02:06PM 38.9725 -97.4453 72° East 480 552 35,000  Level Kansas City Center
02:08PM 39.0314 -97.2106 72° East  Level FlightAware Approximate
02:10PM 39.1450 -96.7936 72° East 475 547 35,000  Level Kansas City Center
02:12PM 39.2208 -96.5893 64° Northeast  Level Estimated
02:13PM 39.2764 -96.2772 64° Northeast 477 549 35,000  Level Kansas City Center
02:15PM 39.2873 -96.1686 72° East  Level FlightAware Approximate
02:16PM 39.3248 -96.0199 72° East  Level FlightAware Approximate
02:16PM 39.3607 -95.9260 73° East  Level FlightAware Approximate
02:18PM 39.4822 -95.4375 86° East 472 543 35,100  Level Kansas City Center
02:19PM 39.5816 -95.5971 64° Northeast  Level Estimated
02:19PM 39.5208 -95.2769 73° East 468 539 35,100  Level Kansas City Center
02:20PM 39.5547 -95.1394 72° East 456 525 34,200 -720 Descending Kansas City Center
02:22PM 39.5851 -94.9696 74° East  Level FlightAware Approximate
02:22PM 39.6325 -94.8153 74° East 457 526 33,000  Level Kansas City Center
02:23PM 39.7266 -94.9348 73° East  Level Estimated
02:24PM 39.6731 -94.6397 73° East 454 522 33,000  Level Kansas City Center
02:24PM 39.7352 -94.7778 86° East  Level FlightAware Approximate
02:25PM 39.7083 -94.4906 73° East 452 520 33,000  Level Kansas City Center
02:26PM 39.7492 -94.3158 73° East 452 520 33,000  Level Kansas City Center
02:28PM 39.8192 -94.0028 74° East 462 532 33,000  Level Kansas City Center
02:30PM 39.8919 -93.6897 73° East 455 524 33,000  Level Kansas City Center
02:31PM 39.9353 -93.5008 73° East 458 527 33,000  Level Kansas City Center
02:32PM 39.9714 -93.3478 73° East 450 518 33,000  Level Kansas City Center
02:33PM 40.0047 -93.1922 74° East 449 517 33,000  Level Kansas City Center
02:34PM 40.0381 -93.0389 74° East 445 512 33,000  Level Kansas City Center
02:35PM 40.0775 -92.8622 74° East 445 512 33,000  Level Kansas City Center
02:36PM 40.1092 -92.7108 75° East 448 516 33,000  Level Kansas City Center
02:37PM 40.1517 -92.5397 72° East 442 509 33,000  Level Kansas City Center
02:38PM 40.2053 -92.4033 63° Northeast 440 506 33,000  Level Kansas City Center
02:39PM 40.2622 -92.2394 65° Northeast 444 511 33,000  Level Kansas City Center
02:41PM 40.3650 -91.9519 65° Northeast 442 509 33,000  Level Kansas City Center
02:42PM 40.4144 -91.8094 65° Northeast 436 502 33,000  Level Kansas City Center
02:44PM 40.4799 -91.6023 65° Northeast  Level FlightAware Approximate
02:45PM 40.5436 -91.4344 65° Northeast 435 501 33,000  Level Chicago Center
02:46PM 40.5956 -91.2861 65° Northeast 436 502 32,200 -780 Descending Chicago Center
02:47PM 40.6450 -91.1378 66° East 442 509 31,400 -600 Descending Chicago Center
02:48PM 40.6961 -90.9889 66° East 445 512 31,000 -240 Descending Chicago Center
02:49PM 40.7564 -90.8097 66° East 445 512 31,000  Level Chicago Center
02:50PM 40.8267 -90.6008 66° East 443 510 31,000  Level Kansas City Center
02:51PM 40.8572 -90.5122 65° Northeast 441 507 31,000 -420 Level Chicago Center
02:52PM 40.9383 -90.2692 66° East 447 514 30,200 -960 Descending Kansas City Center
02:53PM 40.9619 -90.1989 66° East 448 516 29,100 -1,560 Descending Chicago Center
02:55PM 41.0391 -89.9616 67° East  Level FlightAware Approximate
02:57PM 41.1642 -89.5811 62° Northeast 426 490 23,100  Level Chicago Center
02:59PM 41.2283 -89.3749 61° Northeast  Level FlightAware Approximate
03:00PM 41.3208 -89.1900 50° Northeast 388 447 17,600  Level Chicago Center
03:02PM 41.4031 -88.9425 61° Northeast  Level FlightAware Approximate
03:02PM 41.4142 -89.0120 55° Northeast  Level Estimated
03:02PM 41.4286 -88.9203 55° Northeast 375 432 13,200  Level Chicago Center
03:03PM 41.4605 -88.7991 62° Northeast  Level FlightAware Approximate
03:03PM 41.4750 -88.8019 62° Northeast 363 418 11,500  Level Chicago Center
03:04PM 41.5192 -88.6906 62° Northeast 345 397 11,000 -240 Descending Chicago Center
03:06PM 41.6396 -88.3867 50° Northeast  Level FlightAware Approximate
03:06PM 41.5758 -88.5280 48° Northeast  Level FlightAware Approximate
03:06PM 41.5833 -88.5167 48° Northeast 236 272 10,900  Level Chicago TRACON
03:07PM 41.6167 -88.4333 62° Northeast 233 268 9,200 -1,560 Descending Chicago TRACON
03:08PM 41.6333 -88.3667 71° East 225 259 8,000 -1,080 Descending Chicago TRACON
03:08PM 41.6411 -88.3472 62° Northeast 225 259 8,000 -120 Level Chicago Center
03:10PM 41.6833 -88.2167 67° East 232 267 7,800 -480 Descending Chicago TRACON
03:11PM 41.7333 -88.1500 45° Northeast 228 262 6,800 -900 Descending Chicago TRACON
03:12PM 41.7458 -88.1422 25° Northeast 227 261 6,700 -960 Descending Chicago Center
03:13PM 41.7869 -88.0953 40° Northeast 207 238 5,600 -1,260 Descending Chicago Center
03:14PM 41.8225 -88.0553 40° Northeast 184 212 4,100 -1,260 Descending Chicago Center
03:15PM 41.8633 -88.0058 42° Northeast 172 198 3,100 -900 Descending Chicago Center
03:15PM 41.8833 -87.9833 40° Northeast 167 192 2,600 -1,020 Descending Chicago TRACON
03:16PM 41.9167 -87.9333 48° Northeast 146 168 1,500 -900 Descending Chicago TRACON
03:17PM 41.9500 -87.9000 37° Northeast 126 145 900 -600 Descending Chicago TRACON